Time;durP1;ratioP1;P1;durP2;ratioP2;P2;SDS_P1;SDS_P2;PMS_P1;PMS_P2;Temp;Humidity;BMP_temperature;BMP_pressure;BME280_temperature;BME280_humidity;BME280_pressure;Samples;Min_cycle;Max_cycle;Signal;HPM_P1;HPM_P2
2022/09/15 00:00:54;;;;;;;;;;;;;;;14.65;80.98;100007.47;5029672;28;20029;-71
2022/09/15 00:03:21;;;;;;;13.10;2.03;;;;;;;14.70;80.45;100009.59;5028201;28;20016;-71
2022/09/15 00:05:47;;;;;;;5.88;1.92;;;;;;;14.70;81.01;100004.13;5027380;28;20032;-70
2022/09/15 00:08:13;;;;;;;8.75;2.35;;;;;;;14.83;80.45;100015.06;5026345;28;20021;-70
2022/09/15 00:10:47;;;;;;;9.02;1.92;;;;;;;14.82;80.64;100007.94;5028599;28;20071;-70
2022/09/15 00:13:12;;;;;;;9.52;2.90;;;;;;;14.74;80.95;100020.94;5028136;28;20048;-70
2022/09/15 00:15:38;;;;;;;11.90;2.25;;;;;;;14.68;81.68;100017.13;5028005;28;20057;-68
2022/09/15 00:18:05;;;;;;;14.68;2.80;;;;;;;14.64;82.54;100021.31;5028296;28;20033;-69
2022/09/15 00:20:30;;;;;;;12.20;2.22;;;;;;;14.44;84.13;100032.13;5029142;28;20025;-68
2022/09/15 00:22:55;;;;;;;15.25;2.72;;;;;;;14.45;84.54;100022.06;5028667;28;20022;-69
2022/09/15 00:25:21;;;;;;;15.23;2.65;;;;;;;14.49;84.04;100023.38;5027349;28;20025;-68
2022/09/15 00:27:46;;;;;;;11.07;2.53;;;;;;;14.51;84.48;100024.00;5028756;28;20017;-69
2022/09/15 00:30:12;;;;;;;12.57;2.40;;;;;;;14.36;85.54;100030.41;5028355;28;20024;-69
2022/09/15 00:32:38;;;;;;;9.75;2.17;;;;;;;14.34;86.59;100020.75;5026867;28;20383;-70
2022/09/15 00:35:04;;;;;;;17.38;2.53;;;;;;;14.33;87.04;100047.13;5024984;28;20014;-70
2022/09/15 00:37:30;;;;;;;4.10;2.10;;;;;;;14.25;88.78;100041.88;5024340;28;20029;-70
2022/09/15 00:39:55;;;;;;;18.23;2.92;;;;;;;14.12;90.98;100044.53;5026903;28;20022;-70
2022/09/15 00:42:22;;;;;;;14.23;2.85;;;;;;;14.11;92.13;100027.38;5027391;28;20013;-70
2022/09/15 00:44:55;;;;;;;7.32;2.53;;;;;;;14.13;92.42;100027.16;5028854;28;20094;-70
2022/09/15 00:47:39;;;;;;;10.70;3.28;;;;;;;14.20;92.86;100025.31;5028639;28;20025;-70
2022/09/15 00:50:10;;;;;;;7.38;2.72;;;;;;;14.14;93.32;100031.56;5025871;28;20104;-70
2022/09/15 00:52:41;;;;;;;6.75;2.17;;;;;;;14.11;93.40;100026.53;5029008;28;20071;-71
2022/09/15 00:55:19;;;;;;;;;;;;;;;14.15;93.51;100027.81;5028516;28;20049;-70
2022/09/15 00:57:59;;;;;;;10.48;2.58;;;;;;;14.21;93.75;100026.97;5031154;28;19909;-70
2022/09/15 01:00:26;;;;;;;11.65;2.83;;;;;;;14.23;93.91;100035.81;5032310;28;20101;-70
2022/09/15 01:02:53;;;;;;;14.32;3.28;;;;;;;14.12;94.05;100029.03;5031282;28;20053;-70
2022/09/15 01:05:23;;;;;;;8.93;2.70;;;;;;;14.30;93.58;100025.78;5030958;28;20026;-70
2022/09/15 01:07:58;;;;;;;12.18;2.88;;;;;;;14.32;93.98;100026.41;5031794;28;20054;-70
2022/09/15 01:10:30;;;;;;;12.52;2.80;;;;;;;14.08;95.05;100018.75;5025924;28;20335;-70
2022/09/15 01:12:59;;;;;;;16.83;2.83;;;;;;;13.90;96.51;100019.31;5032007;28;20018;-70
2022/09/15 01:15:46;;;;;;;8.93;3.50;;;;;;;14.04;96.52;100021.06;5030634;28;20438;-71
2022/09/15 01:18:25;;;;;;;8.63;2.83;;;;;;;14.37;94.36;100021.19;5030601;28;20463;-70
2022/09/15 01:21:00;;;;;;;12.13;3.47;;;;;;;14.28;94.67;100019.69;5030906;28;20032;-70
2022/09/15 01:23:54;;;;;;;12.00;3.15;;;;;;;14.42;94.19;100017.88;5030692;28;20048;-70
2022/09/15 01:26:30;;;;;;;7.63;2.17;;;;;;;14.60;92.96;100020.03;5031874;28;20036;-70
2022/09/15 01:29:14;;;;;;;10.73;2.90;;;;;;;14.61;93.13;100010.84;5031998;28;20026;-70
2022/09/15 01:34:48;;;;;;;8.52;2.35;;;;;;;14.44;93.96;100020.38;5031622;28;20097;-70
2022/09/15 01:37:23;;;;;;;12.27;3.33;;;;;;;14.15;95.10;100019.66;5026376;28;20045;-70
2022/09/15 01:39:51;;;;;;;9.77;2.60;;;;;;;14.07;96.09;100014.34;5030360;28;20021;-71
2022/09/15 01:42:17;;;;;;;8.27;3.13;;;;;;;14.12;95.91;100022.75;5030417;28;20051;-70
2022/09/15 01:44:48;;;;;;;7.38;2.33;;;;;;;14.22;95.28;100012.34;5030837;28;20509;-70
2022/09/15 01:47:17;;;;;;;8.93;2.17;;;;;;;14.40;94.44;100015.31;5030391;28;20021;-70
2022/09/15 01:49:51;;;;;;;12.05;2.85;;;;;;;14.40;94.23;100026.22;5031391;28;20381;-70
2022/09/15 01:52:19;;;;;;;11.07;2.67;;;;;;;14.44;94.53;100020.38;5030452;28;20021;-70
2022/09/15 01:54:49;;;;;;;10.77;2.53;;;;;;;14.66;93.29;100019.22;5030499;28;20104;-70
2022/09/15 01:57:21;;;;;;;9.02;2.60;;;;;;;14.38;93.46;100028.31;5030978;28;20497;-70
2022/09/15 01:59:48;;;;;;;10.20;2.80;;;;;;;14.40;93.18;100020.78;5029883;28;20017;-70
2022/09/15 02:02:24;;;;;;;14.25;2.78;;;;;;;14.25;94.02;100028.25;5022159;28;20017;-70
2022/09/15 02:04:53;;;;;;;17.83;3.15;;;;;;;14.21;94.04;100021.53;5030956;28;20076;-70
2022/09/15 02:07:46;;;;;;;19.38;3.40;;;;;;;14.19;93.03;100012.72;5028765;28;20021;-70
2022/09/15 02:10:17;;;;;;;22.50;3.22;;;;;;;14.24;92.02;100014.84;5029919;28;20017;-70
2022/09/15 02:13:10;;;;;;;12.25;2.85;;;;;;;14.23;91.87;100022.19;5030818;28;20062;-70
2022/09/15 02:15:52;;;;;;;7.38;2.85;;;;;;;14.15;92.14;100019.66;5031333;28;20032;-70
2022/09/15 02:18:29;;;;;;;13.60;2.75;;;;;;;14.15;92.10;100016.94;5030303;28;20025;-70
2022/09/15 02:21:08;;;;;;;10.10;3.00;;;;;;;14.27;91.65;100015.28;5029431;28;20032;-70
2022/09/15 02:23:39;;;;;;;12.48;2.55;;;;;;;14.34;90.93;100021.63;5029513;28;20065;-70
2022/09/15 02:26:11;;;;;;;13.32;3.47;;;;;;;14.24;91.38;100026.59;5029964;28;20021;-70
2022/09/15 02:28:39;;;;;;;13.00;3.05;;;;;;;14.22;91.29;100022.41;5025768;28;20025;-70
2022/09/15 02:31:09;;;;;;;9.82;2.83;;;;;;;14.30;91.57;100020.34;5029040;28;20029;-70
2022/09/15 02:33:39;;;;;;;13.60;2.92;;;;;;;14.22;91.43;100022.41;5028870;28;20094;-70
2022/09/15 02:36:07;;;;;;;14.90;3.50;;;;;;;14.12;92.07;100028.19;5029525;28;20025;-70
2022/09/15 02:38:38;;;;;;;14.82;3.13;;;;;;;14.19;92.53;100034.50;5029742;28;20064;-69
2022/09/15 02:41:04;;;;;;;14.55;3.00;;;;;;;14.03;93.60;100040.31;5030516;28;20045;-69
2022/09/15 02:43:30;;;;;;;10.15;3.03;;;;;;;13.97;94.67;100041.13;5029449;28;20033;-70
2022/09/15 02:45:56;;;;;;;11.48;3.70;;;;;;;13.87;96.03;100046.06;5029325;28;20127;-70
2022/09/15 02:48:22;;;;;;;17.55;3.63;;;;;;;13.74;96.10;100047.66;5029255;28;20488;-70
2022/09/15 02:50:47;;;;;;;13.73;3.45;;;;;;;13.62;98.21;100030.19;5031724;28;20071;-71
2022/09/15 02:53:13;;;;;;;11.82;3.85;;;;;;;13.67;98.24;100041.31;5047051;22;20045;-73
2022/09/15 02:55:38;;;;;;;19.67;3.55;;;;;;;13.79;98.43;100039.75;5032903;28;20036;-73
2022/09/15 02:58:04;;;;;;;19.40;4.43;;;;;;;13.74;99.08;100034.06;5032338;28;20500;-73
2022/09/15 03:00:30;;;;;;;14.10;3.40;;;;;;;13.70;99.88;100035.50;5030612;28;20032;-74
2022/09/15 03:02:56;;;;;;;12.82;3.90;;;;;;;13.65;99.45;100032.53;5032034;28;20036;-74
2022/09/15 03:05:24;;;;;;;14.45;3.58;;;;;;;13.75;99.79;100027.56;5032207;28;20021;-74
2022/09/15 03:07:51;;;;;;;12.48;4.05;;;;;;;13.78;99.63;100027.19;5033620;28;20029;-74
2022/09/15 03:10:16;;;;;;;16.60;3.78;;;;;;;14.04;98.05;100025.66;5032432;28;20041;-74
2022/09/15 03:12:46;;;;;;;11.20;3.03;;;;;;;14.03;97.95;100034.88;5032556;28;20101;-74
2022/09/15 03:15:13;;;;;;;12.50;3.55;;;;;;;13.97;98.28;100035.66;5033717;28;20108;-75
2022/09/15 03:17:41;;;;;;;13.80;3.75;;;;;;;13.78;98.55;100027.19;5031856;28;20032;-75
2022/09/15 03:20:08;;;;;;;14.85;3.10;;;;;;;14.02;97.81;100038.63;5032319;28;20021;-74
2022/09/15 03:22:34;;;;;;;20.00;4.07;;;;;;;14.13;97.35;100029.88;5032414;28;20563;-75
2022/09/15 03:25:00;;;;;;;10.13;2.72;;;;;;;14.06;96.60;100034.44;5032714;28;20037;-75
2022/09/15 03:27:26;;;;;;;12.88;3.00;;;;;;;14.09;97.16;100039.50;5031748;28;20029;-74
2022/09/15 03:29:52;;;;;;;8.50;2.97;;;;;;;14.34;96.54;100037.94;5033097;28;20032;-74
2022/09/15 03:32:17;;;;;;;15.82;3.95;;;;;;;14.18;96.43;100042.88;5031880;28;20024;-74
2022/09/15 03:34:42;;;;;;;10.95;2.63;;;;;;;14.21;96.78;100043.31;5032127;28;20017;-74
2022/09/15 03:37:08;;;;;;;20.45;4.03;;;;;;;14.22;96.16;100055.91;5032738;28;20378;-75
2022/09/15 03:39:33;;;;;;;17.67;3.53;;;;;;;14.37;96.47;100053.88;5032998;28;20021;-74
2022/09/15 03:41:59;;;;;;;18.30;3.83;;;;;;;14.30;95.99;100053.00;5032267;28;20388;-74
2022/09/15 03:44:24;;;;;;;12.95;3.33;;;;;;;14.19;97.30;100055.47;5031915;28;20021;-75
2022/09/15 03:46:50;;;;;;;17.27;3.47;;;;;;;14.03;97.99;100051.19;5031903;28;20068;-74
2022/09/15 03:49:16;;;;;;;19.02;4.35;;;;;;;13.79;100.00;100050.63;5031160;28;20021;-75
2022/09/15 03:51:41;;;;;;;17.25;4.43;;;;;;;13.77;100.00;100050.00;5033141;28;20040;-75
2022/09/15 03:54:07;;;;;;;10.00;3.92;;;;;;;13.79;100.00;100044.34;5031440;28;20129;-75
2022/09/15 03:56:33;;;;;;;17.73;4.20;;;;;;;13.73;100.00;100037.81;5031570;28;20539;-75
2022/09/15 03:59:04;;;;;;;18.67;5.05;;;;;;;13.77;100.00;100036.38;5031886;28;20227;-75
2022/09/15 04:01:30;;;;;;;18.05;4.43;;;;;;;13.74;100.00;100036.78;5033454;28;20033;-75
2022/09/15 04:03:56;;;;;;;19.60;3.95;;;;;;;13.64;100.00;100030.88;5033087;28;20106;-75
2022/09/15 04:06:23;;;;;;;21.48;4.32;;;;;;;13.85;100.00;100028.06;5033028;28;20073;-75
2022/09/15 04:08:50;;;;;;;17.40;4.00;;;;;;;13.78;100.00;100027.19;5032831;28;20034;-76
2022/09/15 04:11:17;;;;;;;11.05;3.78;;;;;;;13.92;100.00;100027.25;5034046;28;20033;-75
2022/09/15 04:13:43;;;;;;;16.92;4.15;;;;;;;13.73;100.00;100028.81;5033727;28;20044;-75
2022/09/15 04:16:11;;;;;;;12.90;3.25;;;;;;;13.74;100.00;100027.78;5032839;28;20044;-75
2022/09/15 04:18:37;;;;;;;16.65;3.97;;;;;;;13.84;99.29;100026.38;5033062;28;20044;-76
2022/09/15 04:21:06;;;;;;;15.77;3.65;;;;;;;13.81;99.71;100021.31;5033550;28;20034;-75
2022/09/15 04:23:32;;;;;;;12.70;2.80;;;;;;;14.03;98.93;100024.81;5030810;28;20013;-75
2022/09/15 04:26:02;;;;;;;15.50;2.78;;;;;;;14.02;98.17;100016.84;5032252;28;20095;-75
2022/09/15 04:28:31;;;;;;;13.48;2.65;;;;;;;13.91;97.89;100022.88;5033170;28;20082;-75
2022/09/15 04:31:11;;;;;;;10.63;2.70;;;;;;;13.94;98.40;100019.72;5031715;28;20415;-75
2022/09/15 04:33:39;;;;;;;11.18;3.10;;;;;;;14.01;98.45;100026.03;5033264;28;20076;-74
2022/09/15 04:36:07;;;;;;;12.65;2.83;;;;;;;14.06;97.83;100023.56;5032363;28;20052;-75
2022/09/15 04:38:34;;;;;;;15.98;3.50;;;;;;;14.25;96.84;100022.81;5028136;28;20018;-75
2022/09/15 04:41:00;;;;;;;13.77;4.22;;;;;;;13.93;98.56;100023.50;5031447;28;20112;-75
2022/09/15 04:43:26;;;;;;;14.52;3.00;;;;;;;13.84;99.16;100020.94;5031969;28;20037;-75
2022/09/15 04:45:52;;;;;;;13.15;3.40;;;;;;;13.73;99.64;100017.94;5031902;28;20021;-75
2022/09/15 04:48:17;;;;;;;20.48;3.65;;;;;;;13.78;100.00;100021.75;5033058;28;20071;-75
2022/09/15 04:50:43;;;;;;;10.30;2.75;;;;;;;13.59;100.00;100025.16;5031146;28;20037;-75
2022/09/15 04:53:08;;;;;;;16.73;3.85;;;;;;;13.55;100.00;100016.56;5031498;28;20071;-75
2022/09/15 04:55:34;;;;;;;10.52;2.80;;;;;;;13.71;100.00;100020.88;5029100;28;20450;-75
2022/09/15 04:58:03;;;;;;;14.88;2.90;;;;;;;13.70;99.92;100019.19;5029637;28;20025;-75
2022/09/15 05:00:32;;;;;;;17.52;3.50;;;;;;;13.68;99.81;100010.38;5029762;28;20078;-75
2022/09/15 05:02:58;;;;;;;19.05;3.13;;;;;;;13.70;100.00;100013.75;5032328;28;20021;-74
2022/09/15 05:05:24;;;;;;;16.42;3.72;;;;;;;13.72;99.20;100010.81;5031469;28;20049;-74
2022/09/15 05:07:50;;;;;;;21.17;3.40;;;;;;;13.65;99.36;100027.09;5031919;28;20029;-75
2022/09/15 05:10:16;;;;;;;26.52;3.15;;;;;;;13.78;97.89;100016.31;5032586;28;20021;-75
2022/09/15 05:12:41;;;;;;;11.70;2.70;;;;;;;13.81;97.07;100015.88;5032244;28;20026;-77
2022/09/15 05:15:07;;;;;;;21.70;2.80;;;;;;;13.85;96.13;100017.19;5030810;28;20025;-75
2022/09/15 05:17:32;;;;;;;16.88;2.40;;;;;;;13.78;95.29;100010.03;5032409;28;20025;-76
2022/09/15 05:19:59;;;;;;;15.57;3.28;;;;;;;13.73;96.20;100007.88;5030578;28;20029;-72
2022/09/15 05:22:25;;;;;;;15.30;2.70;;;;;;;13.86;94.59;100023.47;5030820;28;20045;-70
2022/09/15 05:24:50;;;;;;;13.88;2.70;;;;;;;13.91;94.72;100017.41;5029263;28;20026;-70
2022/09/15 05:27:16;;;;;;;14.18;2.63;;;;;;;14.09;93.84;100012.28;5030228;28;20025;-71
2022/09/15 05:29:41;;;;;;;12.77;2.78;;;;;;;14.06;93.79;100015.41;5027805;28;20017;-70
2022/09/15 05:32:07;;;;;;;13.40;2.35;;;;;;;14.15;93.91;100010.63;5028270;28;20026;-72
2022/09/15 05:34:32;;;;;;;23.70;3.20;;;;;;;14.12;93.79;100006.44;5031532;28;20017;-71
2022/09/15 05:36:58;;;;;;;17.98;2.78;;;;;;;14.09;93.60;100012.28;5029895;28;20028;-71
2022/09/15 05:39:23;;;;;;;17.10;2.90;;;;;;;13.99;94.12;100017.25;5030511;28;20025;-70
2022/09/15 05:41:49;;;;;;;15.70;2.70;;;;;;;14.04;93.93;100014.78;5032918;28;20027;-72
2022/09/15 05:44:14;;;;;;;15.32;3.33;;;;;;;13.91;95.28;100003.81;5033709;28;20035;-71
2022/09/15 05:46:39;;;;;;;18.55;3.20;;;;;;;13.84;94.80;100020.94;5033814;28;20026;-70
2022/09/15 05:49:07;;;;;;;18.70;2.78;;;;;;;13.79;96.15;100007.09;5033932;28;20049;-70
2022/09/15 05:51:33;;;;;;;14.20;2.13;;;;;;;14.02;94.34;100011.41;5033215;28;20037;-71
2022/09/15 05:53:59;;;;;;;12.75;2.40;;;;;;;14.02;93.90;100019.59;5033030;28;20628;-71
2022/09/15 05:56:25;;;;;;;12.98;3.03;;;;;;;14.05;92.48;100021.88;5033492;28;20056;-70
2022/09/15 05:58:51;;;;;;;16.65;2.33;;;;;;;14.11;91.92;100031.97;5033464;28;20025;-71
2022/09/15 06:01:24;;;;;;;17.17;2.90;;;;;;;13.87;91.99;100024.28;5033365;28;20032;-71
2022/09/15 06:03:51;;;;;;;14.35;2.38;;;;;;;13.91;91.03;100025.59;5034186;28;20052;-70
2022/09/15 06:06:16;;;;;;;13.55;2.50;;;;;;;13.98;90.96;100026.47;5032853;28;20033;-71
2022/09/15 06:08:45;;;;;;;11.65;2.88;;;;;;;13.94;90.98;100022.44;5033548;28;20033;-71
2022/09/15 06:11:19;;;;;;;16.88;1.98;;;;;;;13.96;91.09;100023.09;5034602;28;20022;-71
2022/09/15 06:13:46;;;;;;;17.98;2.83;;;;;;;14.07;90.48;100017.91;5033064;28;20099;-71
2022/09/15 06:16:19;;;;;;;12.50;3.03;;;;;;;14.17;90.30;100030.31;5049869;28;20095;-71
2022/09/15 06:18:47;;;;;;;16.83;2.70;;;;;;;13.99;90.97;100025.41;5027603;28;20151;-71
2022/09/15 06:21:21;;;;;;;29.48;4.47;;;;;;;13.98;90.18;100026.47;5013704;28;20032;-70
2022/09/15 06:23:54;;;;;;;20.45;3.08;;;;;;;14.08;90.96;100032.34;5025015;28;20029;-71
2022/09/15 06:26:20;;;;;;;13.27;2.75;;;;;;;14.24;89.47;100032.03;5032864;28;20025;-71
2022/09/15 06:28:48;;;;;;;16.00;2.22;;;;;;;14.22;89.57;100033.28;5033199;28;20120;-71
2022/09/15 06:31:14;;;;;;;14.50;2.60;;;;;;;14.30;89.32;100042.13;5031918;28;20407;-71
2022/09/15 06:33:42;;;;;;;11.60;2.50;;;;;;;14.30;88.45;100042.13;5012440;28;20030;-69
2022/09/15 06:36:10;;;;;;;11.82;2.40;;;;;;;14.43;87.68;100041.31;5013348;28;20104;-69
2022/09/15 06:38:36;;;;;;;14.02;2.72;;;;;;;14.38;88.83;100043.81;5016700;28;20029;-69
2022/09/15 06:41:02;;;;;;;19.55;3.33;;;;;;;14.43;87.69;100035.03;5032736;28;20048;-68
2022/09/15 06:43:29;;;;;;;15.18;2.60;;;;;;;14.71;86.97;100046.69;5032298;28;20025;-69
2022/09/15 06:46:02;;;;;;;17.95;2.95;;;;;;;14.51;87.55;100048.50;5032254;28;20029;-69
2022/09/15 06:48:28;;;;;;;16.67;2.30;;;;;;;14.44;87.94;100063.97;5031779;28;20031;-70
2022/09/15 06:50:54;;;;;;;16.17;3.72;;;;;;;14.20;90.67;100068.84;5032520;28;20100;-70
2022/09/15 06:53:20;;;;;;;20.25;3.08;;;;;;;13.94;93.04;100057.81;5032108;28;20033;-69
2022/09/15 06:55:45;;;;;;;12.35;2.38;;;;;;;14.10;93.24;100062.97;5032979;28;20087;-69
2022/09/15 06:58:11;;;;;;;18.88;2.70;;;;;;;14.04;92.22;100063.75;5038545;28;20021;-69
2022/09/15 07:00:36;;;;;;;19.25;3.08;;;;;;;13.88;92.51;100069.50;5046110;28;20494;-69
2022/09/15 07:03:02;;;;;;;11.27;2.30;;;;;;;13.81;93.93;100070.31;5046025;28;20029;-68
2022/09/15 07:05:28;;;;;;;14.13;2.38;;;;;;;13.82;92.92;100061.13;5044712;28;20126;-69
2022/09/15 07:07:55;;;;;;;19.73;4.32;;;;;;;13.87;92.13;100067.84;5026919;28;20099;-70
2022/09/15 07:10:20;;;;;;;12.48;2.65;;;;;;;13.93;91.96;100073.31;5027342;28;20037;-69
2022/09/15 07:12:46;;;;;;;11.68;2.75;;;;;;;13.91;91.26;100066.41;5028930;28;20033;-70
2022/09/15 07:15:11;;;;;;;16.83;2.45;;;;;;;14.08;91.64;100075.91;5026793;28;20017;-68
2022/09/15 07:17:36;;;;;;;11.63;2.40;;;;;;;14.07;89.83;100068.78;5028168;28;20029;-68
2022/09/15 07:20:02;;;;;;;14.98;2.47;;;;;;;14.05;89.47;100065.44;5028451;28;20065;-68
2022/09/15 07:22:28;;;;;;;5.45;1.88;;;;;;;14.10;90.08;100063.81;5027369;28;20034;-67
2022/09/15 07:24:53;;;;;;;14.27;2.78;;;;;;;14.23;88.51;100073.91;5027400;28;20124;-68
2022/09/15 07:27:19;;;;;;;21.05;3.05;;;;;;;14.46;87.80;100067.31;5026357;28;20033;-69
2022/09/15 07:29:44;;;;;;;15.48;3.05;;;;;;;14.54;87.97;100069.88;5027222;28;20079;-69
2022/09/15 07:32:09;;;;;;;18.70;2.92;;;;;;;14.67;86.24;100069.97;5027820;28;20033;-69
2022/09/15 07:34:35;;;;;;;12.32;2.67;;;;;;;14.66;87.04;100090.03;5025086;28;20040;-69
2022/09/15 07:37:00;;;;;;;12.55;2.42;;;;;;;14.85;85.63;100078.38;5027418;28;20026;-68
2022/09/15 07:39:25;;;;;;;14.30;2.17;;;;;;;14.93;85.45;100075.47;5026040;28;20044;-68
2022/09/15 07:41:51;;;;;;;15.45;2.58;;;;;;;14.66;85.68;100073.69;5026283;28;20032;-68
2022/09/15 07:44:16;;;;;;;8.00;2.25;;;;;;;14.72;85.85;100078.31;5026545;28;20156;-68
2022/09/15 07:46:42;;;;;;;13.45;3.05;;;;;;;14.71;86.26;100082.09;5026390;28;20024;-66
2022/09/15 07:49:09;;;;;;;15.45;3.05;;;;;;;15.03;85.87;100074.22;5027592;28;20084;-67
2022/09/15 07:51:34;;;;;;;13.93;2.92;;;;;;;14.91;85.18;100083.00;5026245;28;20048;-68
2022/09/15 07:53:59;;;;;;;18.30;2.92;;;;;;;15.19;84.92;100079.28;5026976;28;20061;-67
2022/09/15 07:56:25;;;;;;;16.15;2.72;;;;;;;14.88;83.98;100088.88;5026705;28;20021;-68
2022/09/15 07:58:51;;;;;;;16.88;2.47;;;;;;;14.78;84.36;100088.41;5026778;28;20025;-69
2022/09/15 08:01:17;;;;;;;13.73;2.67;;;;;;;14.96;84.27;100084.28;5026143;28;20025;-68
2022/09/15 08:03:50;;;;;;;26.20;3.40;;;;;;;15.15;82.88;100094.38;5027208;28;20026;-68
2022/09/15 08:06:18;;;;;;;12.52;2.88;;;;;;;15.27;81.47;100086.44;5025327;28;20021;-69
2022/09/15 08:08:44;;;;;;;17.55;2.50;;;;;;;15.20;81.02;100097.34;5027348;28;20104;-67
2022/09/15 08:11:13;;;;;;;17.40;2.30;;;;;;;15.02;82.29;100095.19;5025865;28;20561;-68
2022/09/15 08:13:38;;;;;;;20.05;3.00;;;;;;;15.25;81.49;100100.25;5026195;28;20049;-68
2022/09/15 08:16:12;;;;;;;17.05;2.08;;;;;;;15.29;81.45;100100.69;5026926;28;20061;-70
2022/09/15 08:18:40;;;;;;;18.65;2.67;;;;;;;15.42;81.10;100100.72;5026678;28;20108;-68
2022/09/15 08:21:08;;;;;;;17.23;2.80;;;;;;;15.27;81.62;100100.91;5026547;28;20026;-68
2022/09/15 08:23:35;;;;;;;19.70;3.60;;;;;;;15.41;81.85;100105.31;5025753;28;20021;-69
2022/09/15 08:26:00;;;;;;;14.55;2.60;;;;;;;15.78;80.09;100089.41;5028027;28;20029;-67
2022/09/15 08:28:26;;;;;;;12.73;2.00;;;;;;;16.23;77.81;100086.78;5026661;28;20030;-68
2022/09/15 08:31:05;;;;;;;20.23;2.55;;;;;;;16.07;77.98;100092.72;5025822;28;20083;-65
2022/09/15 08:33:31;;;;;;;11.68;3.33;;;;;;;16.28;76.92;100100.66;5025708;28;20094;-66
2022/09/15 08:36:02;;;;;;;15.68;2.40;;;;;;;16.51;76.02;100108.38;5027588;28;20009;-68
2022/09/15 08:38:28;;;;;;;17.40;3.17;;;;;;;16.07;75.82;100093.56;5025949;28;20029;-67
2022/09/15 08:41:01;;;;;;;12.23;2.08;;;;;;;16.22;75.15;100101.50;5025972;28;20040;-66
2022/09/15 08:43:30;;;;;;;14.23;3.35;;;;;;;15.70;75.75;100097.78;5026139;28;20067;-68
2022/09/15 08:46:02;;;;;;;12.77;1.80;;;;;;;16.05;75.73;100100.31;5026437;28;20454;-68
2022/09/15 08:48:40;;;;;;;9.95;1.92;;;;;;;16.15;74.62;100106.16;5025674;28;20022;-67
2022/09/15 08:51:14;;;;;;;12.88;2.25;;;;;;;16.26;74.63;100102.75;5025658;28;20024;-68
2022/09/15 08:53:47;;;;;;;17.75;2.38;;;;;;;16.67;73.97;100096.94;5025542;28;20052;-68
2022/09/15 08:56:19;;;;;;;12.65;2.00;;;;;;;16.08;73.90;100105.31;5025258;28;20025;-67
2022/09/15 08:58:45;;;;;;;11.98;2.85;;;;;;;16.58;73.44;100100.16;5025797;28;20018;-67
2022/09/15 09:01:43;;;;;;;10.55;2.10;;;;;;;17.29;71.25;100102.72;5025443;28;20104;-67
2022/09/15 09:04:23;;;;;;;14.40;1.98;;;;;;;16.94;70.80;100114.06;5025319;28;20120;-67
2022/09/15 09:07:07;;;;;;;8.27;2.35;;;;;;;16.67;70.59;100107.03;5025471;28;20080;-68
2022/09/15 09:09:44;;;;;;;15.15;2.03;;;;;;;16.34;72.13;100105.25;5006664;28;20133;-68
2022/09/15 09:12:33;;;;;;;16.52;3.28;;;;;;;16.31;73.11;100111.16;5024793;28;20021;-68
2022/09/15 09:15:16;;;;;;;11.75;2.25;;;;;;;16.43;72.56;100109.44;5026171;28;20109;-68
2022/09/15 09:18:00;;;;;;;13.52;1.73;;;;;;;16.51;72.38;100100.16;5029133;28;20033;-67
2022/09/15 09:20:44;;;;;;;11.32;2.70;;;;;;;16.79;71.76;100102.59;5021249;28;20068;-68
2022/09/15 09:23:13;;;;;;;24.17;3.08;;;;;;;16.92;69.82;100093.50;5028624;28;20079;-68
2022/09/15 09:25:41;;;;;;;12.77;2.38;;;;;;;16.92;70.33;100101.69;5029148;28;20120;-66
2022/09/15 09:28:31;;;;;;;10.95;2.47;;;;;;;16.99;70.13;100095.13;5029928;28;20021;-67
2022/09/15 09:31:06;;;;;;;14.40;2.30;;;;;;;16.83;69.94;100092.06;5027993;28;20172;-66
2022/09/15 09:33:42;;;;;;;16.25;3.08;;;;;;;17.06;70.61;100092.34;5029354;28;20032;-66
2022/09/15 09:36:08;;;;;;;13.57;1.90;;;;;;;16.71;74.78;100100.13;5029090;28;20028;-68
2022/09/15 09:38:36;;;;;;;12.93;2.00;;;;;;;16.55;74.68;100102.22;5029321;28;20025;-68
2022/09/15 09:41:08;;;;;;;13.55;2.13;;;;;;;15.72;76.80;100112.94;5028314;28;20021;-68
2022/09/15 09:43:35;;;;;;;16.77;2.55;;;;;;;15.86;79.15;100119.22;5029302;28;20394;-67
2022/09/15 09:46:01;;;;;;;11.52;2.17;;;;;;;15.73;81.41;100124.69;5030772;28;20040;-68
2022/09/15 09:48:28;;;;;;;14.10;3.03;;;;;;;15.34;83.61;100137.22;5028651;28;20029;-68
2022/09/15 09:50:54;;;;;;;11.18;2.13;;;;;;;15.03;87.58;100145.09;5029236;28;20021;-69
2022/09/15 09:53:31;;;;;;;8.45;2.55;;;;;;;14.45;87.20;100147.34;5029303;28;20108;-69
2022/09/15 09:56:23;;;;;;;8.68;1.85;;;;;;;14.47;87.75;100139.81;5028499;28;20076;-70
2022/09/15 09:58:49;;;;;;;13.65;2.08;;;;;;;14.41;89.77;100141.47;5029293;28;20029;-70
2022/09/15 10:01:23;;;;;;;9.98;2.72;;;;;;;14.27;90.11;100128.78;5028410;28;20032;-70
2022/09/15 10:03:48;;;;;;;15.68;2.30;;;;;;;14.33;90.35;100128.84;5025230;28;20037;-69
2022/09/15 10:06:29;;;;;;;16.33;2.38;;;;;;;14.53;89.37;100133.56;5029667;28;20026;-67
2022/09/15 10:08:57;;;;;;;11.27;2.65;;;;;;;14.96;86.83;100123.28;5028259;28;20025;-67
2022/09/15 10:11:39;;;;;;;9.55;1.92;;;;;;;15.11;87.34;100132.13;5030248;28;20061;-68
2022/09/15 10:14:05;;;;;;;16.70;2.60;;;;;;;14.89;85.73;100128.72;5009374;28;20061;-68
2022/09/15 10:16:32;;;;;;;9.00;2.00;;;;;;;15.01;86.40;100122.66;5008875;28;20048;-69
2022/09/15 10:18:57;;;;;;;7.45;2.15;;;;;;;15.34;86.63;100131.75;5008121;28;20104;-69
2022/09/15 10:21:24;;;;;;;14.85;2.10;;;;;;;15.69;84.19;100118.78;5017139;28;20051;-69
2022/09/15 10:23:49;;;;;;;15.77;2.45;;;;;;;15.93;80.35;100128.25;5029036;28;20022;-69
2022/09/15 10:26:14;;;;;;;16.50;2.35;;;;;;;15.92;82.70;100118.38;5028182;28;20354;-68
2022/09/15 10:28:40;;;;;;;10.05;1.90;;;;;;;15.99;81.05;100113.75;5027912;28;20048;-69
2022/09/15 10:31:10;;;;;;;10.00;2.10;;;;;;;16.13;80.93;100108.25;5027327;28;20060;-68
2022/09/15 10:33:41;;;;;;;12.38;3.00;;;;;;;15.99;80.60;100112.91;5028143;28;20389;-69
2022/09/15 10:36:12;;;;;;;11.90;2.22;;;;;;;16.24;79.77;100110.34;5008840;28;20050;-68
2022/09/15 10:38:42;;;;;;;8.27;1.50;;;;;;;16.00;78.65;100109.97;5024829;28;20033;-69
2022/09/15 10:41:13;;;;;;;12.90;2.45;;;;;;;16.26;78.95;100110.97;5027273;28;20048;-68
2022/09/15 10:44:08;;;;;;;11.48;1.83;;;;;;;16.32;78.11;100107.38;5029044;28;20025;-68
2022/09/15 10:46:57;;;;;;;11.52;2.00;;;;;;;16.68;77.00;100111.44;5028682;28;20026;-68
2022/09/15 10:49:35;;;;;;;10.25;2.25;;;;;;;16.79;73.46;100105.31;5028052;28;20022;-66
2022/09/15 10:52:19;;;;;;;19.15;1.95;;;;;;;17.01;71.95;100095.72;5027950;28;20036;-67
2022/09/15 10:55:06;;;;;;;8.43;2.60;;;;;;;17.12;72.16;100090.63;5027206;28;20021;-67
2022/09/15 10:57:39;;;;;;;7.10;1.35;;;;;;;17.02;67.57;100091.97;5026793;28;20037;-69
2022/09/15 11:00:11;;;;;;;8.27;2.08;;;;;;;17.03;67.83;100092.81;5026997;28;20036;-69
2022/09/15 11:02:58;;;;;;;13.77;2.50;;;;;;;17.63;65.78;100085.81;5027304;28;20481;-68
2022/09/15 11:05:48;;;;;;;7.40;1.42;;;;;;;18.06;64.04;100093.25;5028528;28;20041;-70
2022/09/15 11:08:21;;;;;;;11.30;1.30;;;;;;;17.78;63.58;100095.63;5028016;28;20033;-68
2022/09/15 11:11:10;;;;;;;14.52;1.70;;;;;;;17.63;61.76;100094.03;5027325;28;20029;-70
2022/09/15 11:13:44;;;;;;;14.10;1.92;;;;;;;17.81;58.47;100103.41;5027700;28;20032;-67
2022/09/15 11:16:26;;;;;;;7.18;1.17;;;;;;;17.61;58.04;100096.16;5027693;28;20025;-67
2022/09/15 11:18:57;;;;;;;5.57;1.13;;;;;;;18.41;58.52;100098.97;5029122;28;20034;-68
2022/09/15 11:21:33;;;;;;;10.90;1.77;;;;;;;18.10;58.35;100094.47;5028447;28;20033;-67
2022/09/15 11:24:10;;;;;;;5.90;1.38;;;;;;;18.07;58.85;100100.41;5026961;28;20021;-67
2022/09/15 11:26:42;;;;;;;8.02;1.88;;;;;;;18.62;57.67;100103.16;5027505;28;20024;-68
2022/09/15 11:29:25;;;;;;;8.23;1.98;;;;;;;17.97;59.44;100122.00;5026329;28;20084;-67
2022/09/15 11:31:57;;;;;;;10.45;1.90;;;;;;;17.26;67.06;100141.47;5027287;28;20034;-67
2022/09/15 11:34:33;;;;;;;11.05;1.77;;;;;;;16.31;71.87;100149.41;5027282;28;20076;-67